sensor_id;sensor_type;location;lat;lon;timestamp;P1;durP1;ratioP1;P2;durP2;ratioP2
35576;SDS011;21680;52.400;16.920;2022-12-11T00:00:19;31.70;;;13.80;;
35576;SDS011;21680;52.400;16.920;2022-12-11T00:02:45;30.10;;;12.70;;
35576;SDS011;21680;52.400;16.920;2022-12-11T00:05:10;33.50;;;14.80;;
35576;SDS011;21680;52.400;16.920;2022-12-11T00:07:35;40.10;;;16.00;;
35576;SDS011;21680;52.400;16.920;2022-12-11T00:10:01;37.00;;;13.30;;
35576;SDS011;21680;52.400;16.920;2022-12-11T00:12:28;35.70;;;14.00;;
35576;SDS011;21680;52.400;16.920;2022-12-11T00:14:54;31.10;;;13.90;;
35576;SDS011;21680;52.400;16.920;2022-12-11T00:17:19;34.70;;;14.70;;
35576;SDS011;21680;52.400;16.920;2022-12-11T00:19:44;34.00;;;14.40;;
35576;SDS011;21680;52.400;16.920;2022-12-11T00:22:10;33.70;;;14.10;;
35576;SDS011;21680;52.400;16.920;2022-12-11T00:24:35;34.70;;;15.00;;
35576;SDS011;21680;52.400;16.920;2022-12-11T00:27:00;31.60;;;13.80;;
35576;SDS011;21680;52.400;16.920;2022-12-11T00:29:25;32.00;;;14.40;;
35576;SDS011;21680;52.400;16.920;2022-12-11T00:31:51;30.00;;;14.00;;
35576;SDS011;21680;52.400;16.920;2022-12-11T00:34:16;29.70;;;13.10;;
35576;SDS011;21680;52.400;16.920;2022-12-11T00:36:42;34.00;;;14.90;;
35576;SDS011;21680;52.400;16.920;2022-12-11T00:39:07;30.20;;;14.20;;
35576;SDS011;21680;52.400;16.920;2022-12-11T00:41:32;35.70;;;14.00;;
35576;SDS011;21680;52.400;16.920;2022-12-11T00:43:58;36.40;;;15.50;;
35576;SDS011;21680;52.400;16.920;2022-12-11T00:46:23;27.00;;;12.60;;
35576;SDS011;21680;52.400;16.920;2022-12-11T00:48:48;34.60;;;14.50;;
35576;SDS011;21680;52.400;16.920;2022-12-11T00:51:14;27.30;;;13.10;;
35576;SDS011;21680;52.400;16.920;2022-12-11T00:53:40;28.40;;;13.50;;
35576;SDS011;21680;52.400;16.920;2022-12-11T00:56:12;34.80;;;13.40;;
35576;SDS011;21680;52.400;16.920;2022-12-11T00:58:40;27.90;;;12.30;;
35576;SDS011;21680;52.400;16.920;2022-12-11T01:01:06;31.90;;;13.90;;
35576;SDS011;21680;52.400;16.920;2022-12-11T01:03:33;29.40;;;13.60;;
35576;SDS011;21680;52.400;16.920;2022-12-11T01:05:58;28.20;;;12.50;;
35576;SDS011;21680;52.400;16.920;2022-12-11T01:08:23;33.10;;;13.90;;
35576;SDS011;21680;52.400;16.920;2022-12-11T01:10:49;28.50;;;11.70;;
35576;SDS011;21680;52.400;16.920;2022-12-11T01:13:14;27.70;;;11.80;;
35576;SDS011;21680;52.400;16.920;2022-12-11T01:15:41;29.20;;;12.00;;
35576;SDS011;21680;52.400;16.920;2022-12-11T01:18:08;28.50;;;12.30;;
35576;SDS011;21680;52.400;16.920;2022-12-11T01:20:36;25.80;;;11.20;;
35576;SDS011;21680;52.400;16.920;2022-12-11T01:23:03;27.50;;;11.40;;
35576;SDS011;21680;52.400;16.920;2022-12-11T01:25:29;29.90;;;13.50;;
35576;SDS011;21680;52.400;16.920;2022-12-11T01:27:57;27.50;;;13.10;;
35576;SDS011;21680;52.400;16.920;2022-12-11T01:30:22;26.90;;;12.80;;
35576;SDS011;21680;52.400;16.920;2022-12-11T01:32:49;29.40;;;12.70;;
35576;SDS011;21680;52.400;16.920;2022-12-11T01:35:15;29.60;;;12.90;;
35576;SDS011;21680;52.400;16.920;2022-12-11T01:37:41;28.00;;;12.20;;
35576;SDS011;21680;52.400;16.920;2022-12-11T01:40:08;27.70;;;12.20;;
35576;SDS011;21680;52.400;16.920;2022-12-11T01:42:34;26.30;;;12.10;;
35576;SDS011;21680;52.400;16.920;2022-12-11T01:47:58;22.80;;;10.60;;
35576;SDS011;21680;52.400;16.920;2022-12-11T01:50:28;32.90;;;14.80;;
35576;SDS011;21680;52.400;16.920;2022-12-11T01:52:57;35.30;;;11.90;;
35576;SDS011;21680;52.400;16.920;2022-12-11T01:55:23;23.90;;;12.10;;
35576;SDS011;21680;52.400;16.920;2022-12-11T01:57:48;28.20;;;12.90;;
35576;SDS011;21680;52.400;16.920;2022-12-11T02:00:15;27.90;;;12.30;;
35576;SDS011;21680;52.400;16.920;2022-12-11T02:02:43;34.10;;;13.20;;
35576;SDS011;21680;52.400;16.920;2022-12-11T02:05:09;28.80;;;12.00;;
35576;SDS011;21680;52.400;16.920;2022-12-11T02:07:36;29.20;;;12.80;;
35576;SDS011;21680;52.400;16.920;2022-12-11T02:10:06;27.90;;;12.90;;
35576;SDS011;21680;52.400;16.920;2022-12-11T02:12:38;26.80;;;12.10;;
35576;SDS011;21680;52.400;16.920;2022-12-11T02:15:16;26.00;;;11.90;;
35576;SDS011;21680;52.400;16.920;2022-12-11T02:17:44;27.20;;;12.80;;
35576;SDS011;21680;52.400;16.920;2022-12-11T02:20:19;27.90;;;11.90;;
35576;SDS011;21680;52.400;16.920;2022-12-11T02:25:38;31.40;;;13.50;;
35576;SDS011;21680;52.400;16.920;2022-12-11T02:28:17;36.70;;;13.00;;
35576;SDS011;21680;52.400;16.920;2022-12-11T02:31:09;31.00;;;12.90;;
35576;SDS011;21680;52.400;16.920;2022-12-11T02:36:32;27.50;;;11.20;;
35576;SDS011;21680;52.400;16.920;2022-12-11T02:39:02;29.50;;;12.50;;
35576;SDS011;21680;52.400;16.920;2022-12-11T02:41:29;27.00;;;12.50;;
35576;SDS011;21680;52.400;16.920;2022-12-11T02:43:57;29.50;;;13.80;;
35576;SDS011;21680;52.400;16.920;2022-12-11T02:46:26;31.30;;;12.80;;
35576;SDS011;21680;52.400;16.920;2022-12-11T02:48:52;32.20;;;13.50;;
35576;SDS011;21680;52.400;16.920;2022-12-11T02:51:21;26.70;;;12.20;;
35576;SDS011;21680;52.400;16.920;2022-12-11T02:53:53;29.50;;;11.00;;
35576;SDS011;21680;52.400;16.920;2022-12-11T02:56:29;27.70;;;12.80;;
35576;SDS011;21680;52.400;16.920;2022-12-11T02:59:02;31.50;;;13.10;;
35576;SDS011;21680;52.400;16.920;2022-12-11T03:01:32;22.30;;;11.10;;
35576;SDS011;21680;52.400;16.920;2022-12-11T03:03:58;30.90;;;12.10;;
35576;SDS011;21680;52.400;16.920;2022-12-11T03:06:26;29.40;;;12.30;;
35576;SDS011;21680;52.400;16.920;2022-12-11T03:08:56;28.70;;;11.70;;
35576;SDS011;21680;52.400;16.920;2022-12-11T03:11:21;28.30;;;11.70;;
35576;SDS011;21680;52.400;16.920;2022-12-11T03:13:47;27.40;;;11.90;;
35576;SDS011;21680;52.400;16.920;2022-12-11T03:22:14;27.30;;;11.30;;
35576;SDS011;21680;52.400;16.920;2022-12-11T03:24:45;33.80;;;12.80;;
35576;SDS011;21680;52.400;16.920;2022-12-11T03:27:33;28.10;;;12.50;;
35576;SDS011;21680;52.400;16.920;2022-12-11T03:30:07;30.40;;;12.50;;
35576;SDS011;21680;52.400;16.920;2022-12-11T03:32:38;21.70;;;9.30;;
35576;SDS011;21680;52.400;16.920;2022-12-11T03:37:47;31.60;;;12.30;;
35576;SDS011;21680;52.400;16.920;2022-12-11T03:40:15;27.90;;;11.90;;
35576;SDS011;21680;52.400;16.920;2022-12-11T03:42:43;27.90;;;11.50;;
35576;SDS011;21680;52.400;16.920;2022-12-11T03:45:11;26.10;;;11.50;;
35576;SDS011;21680;52.400;16.920;2022-12-11T03:47:38;25.80;;;11.70;;
35576;SDS011;21680;52.400;16.920;2022-12-11T03:50:06;29.40;;;11.70;;
35576;SDS011;21680;52.400;16.920;2022-12-11T03:52:34;32.30;;;13.10;;
35576;SDS011;21680;52.400;16.920;2022-12-11T03:55:02;26.10;;;10.60;;
35576;SDS011;21680;52.400;16.920;2022-12-11T03:57:29;26.70;;;11.10;;
35576;SDS011;21680;52.400;16.920;2022-12-11T03:59:58;28.60;;;12.60;;
35576;SDS011;21680;52.400;16.920;2022-12-11T04:02:23;26.50;;;11.00;;
35576;SDS011;21680;52.400;16.920;2022-12-11T04:04:49;23.10;;;10.20;;
35576;SDS011;21680;52.400;16.920;2022-12-11T04:07:14;26.00;;;10.80;;
35576;SDS011;21680;52.400;16.920;2022-12-11T04:09:39;31.20;;;11.90;;
35576;SDS011;21680;52.400;16.920;2022-12-11T04:12:05;26.70;;;11.80;;
35576;SDS011;21680;52.400;16.920;2022-12-11T04:14:30;23.60;;;10.50;;
35576;SDS011;21680;52.400;16.920;2022-12-11T04:17:14;26.70;;;11.60;;
35576;SDS011;21680;52.400;16.920;2022-12-11T04:19:59;19.80;;;8.70;;
35576;SDS011;21680;52.400;16.920;2022-12-11T04:22:43;23.50;;;10.40;;
35576;SDS011;21680;52.400;16.920;2022-12-11T04:25:28;25.00;;;10.20;;
35576;SDS011;21680;52.400;16.920;2022-12-11T04:27:53;22.80;;;10.50;;
35576;SDS011;21680;52.400;16.920;2022-12-11T04:30:20;23.30;;;10.00;;
35576;SDS011;21680;52.400;16.920;2022-12-11T04:32:47;25.60;;;10.60;;
35576;SDS011;21680;52.400;16.920;2022-12-11T04:35:13;27.70;;;11.90;;
35576;SDS011;21680;52.400;16.920;2022-12-11T04:37:39;23.20;;;10.10;;
35576;SDS011;21680;52.400;16.920;2022-12-11T04:40:06;23.10;;;10.40;;
35576;SDS011;21680;52.400;16.920;2022-12-11T04:42:33;25.90;;;9.70;;
35576;SDS011;21680;52.400;16.920;2022-12-11T04:44:58;18.80;;;8.40;;
35576;SDS011;21680;52.400;16.920;2022-12-11T04:47:24;18.40;;;8.20;;
35576;SDS011;21680;52.400;16.920;2022-12-11T04:49:49;17.70;;;8.00;;
35576;SDS011;21680;52.400;16.920;2022-12-11T04:52:14;23.30;;;9.00;;
35576;SDS011;21680;52.400;16.920;2022-12-11T04:54:42;15.10;;;7.80;;
35576;SDS011;21680;52.400;16.920;2022-12-11T04:57:07;22.50;;;8.10;;
35576;SDS011;21680;52.400;16.920;2022-12-11T04:59:32;19.50;;;9.20;;
35576;SDS011;21680;52.400;16.920;2022-12-11T05:01:58;16.10;;;8.20;;
35576;SDS011;21680;52.400;16.920;2022-12-11T05:04:23;16.70;;;7.20;;
35576;SDS011;21680;52.400;16.920;2022-12-11T05:06:50;19.50;;;8.50;;
35576;SDS011;21680;52.400;16.920;2022-12-11T05:09:15;19.20;;;8.60;;
35576;SDS011;21680;52.400;16.920;2022-12-11T05:11:42;19.00;;;8.90;;
35576;SDS011;21680;52.400;16.920;2022-12-11T05:14:07;16.90;;;8.30;;
35576;SDS011;21680;52.400;16.920;2022-12-11T05:16:32;19.60;;;7.10;;
35576;SDS011;21680;52.400;16.920;2022-12-11T05:18:58;15.70;;;7.80;;
35576;SDS011;21680;52.400;16.920;2022-12-11T05:21:23;16.00;;;8.10;;
35576;SDS011;21680;52.400;16.920;2022-12-11T05:23:49;17.80;;;8.80;;
35576;SDS011;21680;52.400;16.920;2022-12-11T05:26:16;20.50;;;8.40;;
35576;SDS011;21680;52.400;16.920;2022-12-11T05:28:42;14.30;;;7.60;;
35576;SDS011;21680;52.400;16.920;2022-12-11T05:31:13;20.50;;;8.90;;
35576;SDS011;21680;52.400;16.920;2022-12-11T05:33:41;16.40;;;7.90;;
35576;SDS011;21680;52.400;16.920;2022-12-11T05:36:07;15.90;;;8.10;;
35576;SDS011;21680;52.400;16.920;2022-12-11T05:38:33;17.30;;;7.20;;
35576;SDS011;21680;52.400;16.920;2022-12-11T05:41:00;19.50;;;8.40;;
35576;SDS011;21680;52.400;16.920;2022-12-11T05:43:28;16.30;;;7.30;;
35576;SDS011;21680;52.400;16.920;2022-12-11T05:46:03;20.50;;;8.60;;
35576;SDS011;21680;52.400;16.920;2022-12-11T05:48:30;18.00;;;8.40;;
35576;SDS011;21680;52.400;16.920;2022-12-11T05:50:59;17.20;;;7.70;;
35576;SDS011;21680;52.400;16.920;2022-12-11T05:53:25;18.40;;;8.40;;
35576;SDS011;21680;52.400;16.920;2022-12-11T05:55:51;17.50;;;7.60;;
35576;SDS011;21680;52.400;16.920;2022-12-11T05:58:17;20.80;;;9.30;;
35576;SDS011;21680;52.400;16.920;2022-12-11T06:00:43;23.70;;;10.20;;
35576;SDS011;21680;52.400;16.920;2022-12-11T06:03:08;16.30;;;8.80;;
35576;SDS011;21680;52.400;16.920;2022-12-11T06:05:37;20.60;;;9.10;;
35576;SDS011;21680;52.400;16.920;2022-12-11T06:08:06;14.40;;;7.70;;
35576;SDS011;21680;52.400;16.920;2022-12-11T06:10:31;18.50;;;9.20;;
35576;SDS011;21680;52.400;16.920;2022-12-11T06:12:57;16.20;;;7.60;;
35576;SDS011;21680;52.400;16.920;2022-12-11T06:15:22;20.60;;;8.90;;
35576;SDS011;21680;52.400;16.920;2022-12-11T06:17:47;14.90;;;8.10;;
35576;SDS011;21680;52.400;16.920;2022-12-11T06:20:13;23.00;;;10.40;;
35576;SDS011;21680;52.400;16.920;2022-12-11T06:22:38;18.00;;;8.10;;
35576;SDS011;21680;52.400;16.920;2022-12-11T06:25:04;21.70;;;9.50;;
35576;SDS011;21680;52.400;16.920;2022-12-11T06:27:30;19.60;;;8.90;;
35576;SDS011;21680;52.400;16.920;2022-12-11T06:29:55;20.90;;;9.50;;
35576;SDS011;21680;52.400;16.920;2022-12-11T06:32:21;21.10;;;9.20;;
35576;SDS011;21680;52.400;16.920;2022-12-11T06:34:46;17.70;;;8.60;;
35576;SDS011;21680;52.400;16.920;2022-12-11T06:37:11;19.10;;;9.00;;
35576;SDS011;21680;52.400;16.920;2022-12-11T06:39:37;24.80;;;10.90;;
35576;SDS011;21680;52.400;16.920;2022-12-11T06:42:02;20.10;;;10.20;;
35576;SDS011;21680;52.400;16.920;2022-12-11T06:44:27;22.80;;;9.10;;
35576;SDS011;21680;52.400;16.920;2022-12-11T06:46:53;23.40;;;10.80;;
35576;SDS011;21680;52.400;16.920;2022-12-11T06:49:18;23.50;;;10.90;;
35576;SDS011;21680;52.400;16.920;2022-12-11T06:51:43;18.60;;;8.90;;
35576;SDS011;21680;52.400;16.920;2022-12-11T06:54:08;19.50;;;10.20;;
35576;SDS011;21680;52.400;16.920;2022-12-11T06:56:34;24.20;;;11.30;;
35576;SDS011;21680;52.400;16.920;2022-12-11T06:59:00;24.70;;;11.50;;
35576;SDS011;21680;52.400;16.920;2022-12-11T07:01:27;24.50;;;12.20;;
35576;SDS011;21680;52.400;16.920;2022-12-11T07:03:56;24.30;;;11.20;;
35576;SDS011;21680;52.400;16.920;2022-12-11T07:06:24;25.80;;;11.10;;
35576;SDS011;21680;52.400;16.920;2022-12-11T07:08:50;24.60;;;10.80;;
35576;SDS011;21680;52.400;16.920;2022-12-11T07:11:17;22.70;;;10.80;;
35576;SDS011;21680;52.400;16.920;2022-12-11T07:13:44;21.50;;;9.40;;
35576;SDS011;21680;52.400;16.920;2022-12-11T07:16:10;20.60;;;10.40;;
35576;SDS011;21680;52.400;16.920;2022-12-11T07:18:37;26.80;;;12.20;;
35576;SDS011;21680;52.400;16.920;2022-12-11T07:21:07;22.40;;;11.30;;
35576;SDS011;21680;52.400;16.920;2022-12-11T07:23:35;26.50;;;11.20;;
35576;SDS011;21680;52.400;16.920;2022-12-11T07:26:08;23.60;;;10.80;;
35576;SDS011;21680;52.400;16.920;2022-12-11T07:28:35;30.30;;;12.60;;
35576;SDS011;21680;52.400;16.920;2022-12-11T07:31:04;31.60;;;13.10;;
35576;SDS011;21680;52.400;16.920;2022-12-11T07:33:31;24.10;;;12.00;;
35576;SDS011;21680;52.400;16.920;2022-12-11T07:35:59;26.60;;;11.40;;
35576;SDS011;21680;52.400;16.920;2022-12-11T07:38:28;26.60;;;12.60;;
35576;SDS011;21680;52.400;16.920;2022-12-11T07:40:53;27.60;;;13.20;;
35576;SDS011;21680;52.400;16.920;2022-12-11T07:43:18;21.90;;;11.10;;
35576;SDS011;21680;52.400;16.920;2022-12-11T07:45:44;25.90;;;11.20;;
35576;SDS011;21680;52.400;16.920;2022-12-11T07:48:09;28.20;;;12.40;;
35576;SDS011;21680;52.400;16.920;2022-12-11T07:50:34;27.80;;;13.10;;
35576;SDS011;21680;52.400;16.920;2022-12-11T07:53:00;25.70;;;12.60;;
35576;SDS011;21680;52.400;16.920;2022-12-11T07:55:25;28.50;;;12.40;;
35576;SDS011;21680;52.400;16.920;2022-12-11T07:57:50;27.20;;;12.30;;
35576;SDS011;21680;52.400;16.920;2022-12-11T08:00:16;26.50;;;12.30;;
35576;SDS011;21680;52.400;16.920;2022-12-11T08:02:42;25.00;;;10.60;;
35576;SDS011;21680;52.400;16.920;2022-12-11T08:05:07;26.40;;;12.50;;
35576;SDS011;21680;52.400;16.920;2022-12-11T08:07:33;27.00;;;11.90;;
35576;SDS011;21680;52.400;16.920;2022-12-11T08:09:59;21.70;;;9.90;;
35576;SDS011;21680;52.400;16.920;2022-12-11T08:12:25;28.80;;;10.70;;
35576;SDS011;21680;52.400;16.920;2022-12-11T08:14:51;24.00;;;10.80;;
35576;SDS011;21680;52.400;16.920;2022-12-11T08:17:16;25.10;;;11.90;;
35576;SDS011;21680;52.400;16.920;2022-12-11T08:19:41;22.50;;;11.20;;
35576;SDS011;21680;52.400;16.920;2022-12-11T08:22:07;20.60;;;8.80;;
35576;SDS011;21680;52.400;16.920;2022-12-11T08:24:32;24.20;;;9.30;;
35576;SDS011;21680;52.400;16.920;2022-12-11T08:26:57;24.60;;;10.60;;
35576;SDS011;21680;52.400;16.920;2022-12-11T08:29:23;24.90;;;11.50;;
35576;SDS011;21680;52.400;16.920;2022-12-11T08:31:48;24.20;;;10.80;;
35576;SDS011;21680;52.400;16.920;2022-12-11T08:34:14;21.20;;;10.20;;
35576;SDS011;21680;52.400;16.920;2022-12-11T08:36:39;24.40;;;11.80;;
35576;SDS011;21680;52.400;16.920;2022-12-11T08:39:05;23.70;;;9.60;;
35576;SDS011;21680;52.400;16.920;2022-12-11T08:41:30;25.10;;;11.10;;
35576;SDS011;21680;52.400;16.920;2022-12-11T08:43:56;21.10;;;9.60;;
35576;SDS011;21680;52.400;16.920;2022-12-11T08:46:23;27.20;;;11.00;;
35576;SDS011;21680;52.400;16.920;2022-12-11T08:48:50;18.80;;;9.40;;
35576;SDS011;21680;52.400;16.920;2022-12-11T08:51:18;22.60;;;10.40;;
35576;SDS011;21680;52.400;16.920;2022-12-11T08:53:45;26.10;;;11.10;;
35576;SDS011;21680;52.400;16.920;2022-12-11T08:56:18;24.30;;;11.70;;
35576;SDS011;21680;52.400;16.920;2022-12-11T08:58:45;28.50;;;11.30;;
35576;SDS011;21680;52.400;16.920;2022-12-11T09:01:13;29.40;;;11.70;;
35576;SDS011;21680;52.400;16.920;2022-12-11T09:03:41;28.20;;;10.90;;
35576;SDS011;21680;52.400;16.920;2022-12-11T09:06:06;26.50;;;12.20;;
35576;SDS011;21680;52.400;16.920;2022-12-11T09:08:34;27.00;;;13.40;;
35576;SDS011;21680;52.400;16.920;2022-12-11T09:11:07;30.90;;;13.60;;
35576;SDS011;21680;52.400;16.920;2022-12-11T09:13:34;33.50;;;13.80;;
35576;SDS011;21680;52.400;16.920;2022-12-11T09:16:02;29.40;;;14.10;;
35576;SDS011;21680;52.400;16.920;2022-12-11T09:18:29;29.40;;;13.30;;
35576;SDS011;21680;52.400;16.920;2022-12-11T09:20:58;30.00;;;13.30;;
35576;SDS011;21680;52.400;16.920;2022-12-11T09:23:24;28.90;;;12.40;;
35576;SDS011;21680;52.400;16.920;2022-12-11T09:25:50;25.80;;;11.80;;
35576;SDS011;21680;52.400;16.920;2022-12-11T09:28:15;27.60;;;12.10;;
35576;SDS011;21680;52.400;16.920;2022-12-11T09:30:41;25.10;;;11.20;;
35576;SDS011;21680;52.400;16.920;2022-12-11T09:33:07;19.90;;;8.20;;
35576;SDS011;21680;52.400;16.920;2022-12-11T09:35:32;26.10;;;10.90;;
35576;SDS011;21680;52.400;16.920;2022-12-11T09:37:57;21.40;;;9.50;;
35576;SDS011;21680;52.400;16.920;2022-12-11T09:40:22;27.00;;;11.80;;
35576;SDS011;21680;52.400;16.920;2022-12-11T09:42:57;23.50;;;11.00;;
35576;SDS011;21680;52.400;16.920;2022-12-11T09:45:27;28.30;;;11.40;;
35576;SDS011;21680;52.400;16.920;2022-12-11T09:47:53;32.10;;;13.00;;
35576;SDS011;21680;52.400;16.920;2022-12-11T09:50:24;28.90;;;11.80;;
35576;SDS011;21680;52.400;16.920;2022-12-11T09:53:06;23.20;;;10.30;;
35576;SDS011;21680;52.400;16.920;2022-12-11T09:55:51;30.20;;;12.30;;
35576;SDS011;21680;52.400;16.920;2022-12-11T09:58:29;26.90;;;11.50;;
35576;SDS011;21680;52.400;16.920;2022-12-11T10:01:08;24.00;;;12.10;;
35576;SDS011;21680;52.400;16.920;2022-12-11T10:06:37;30.60;;;11.70;;
35576;SDS011;21680;52.400;16.920;2022-12-11T10:14:35;24.50;;;10.50;;
35576;SDS011;21680;52.400;16.920;2022-12-11T10:17:16;26.10;;;11.00;;
35576;SDS011;21680;52.400;16.920;2022-12-11T10:19:45;25.00;;;11.00;;
35576;SDS011;21680;52.400;16.920;2022-12-11T10:22:19;24.10;;;11.30;;
35576;SDS011;21680;52.400;16.920;2022-12-11T10:27:30;31.70;;;12.10;;
35576;SDS011;21680;52.400;16.920;2022-12-11T10:30:12;24.30;;;10.30;;
35576;SDS011;21680;52.400;16.920;2022-12-11T10:33:14;21.90;;;9.50;;
35576;SDS011;21680;52.400;16.920;2022-12-11T10:41:03;23.60;;;10.40;;
35576;SDS011;21680;52.400;16.920;2022-12-11T10:43:34;22.50;;;10.60;;
35576;SDS011;21680;52.400;16.920;2022-12-11T10:46:05;26.10;;;10.20;;
35576;SDS011;21680;52.400;16.920;2022-12-11T10:48:44;22.80;;;11.30;;
35576;SDS011;21680;52.400;16.920;2022-12-11T10:51:10;21.90;;;10.40;;
35576;SDS011;21680;52.400;16.920;2022-12-11T10:53:36;25.00;;;11.50;;
35576;SDS011;21680;52.400;16.920;2022-12-11T10:56:04;28.70;;;12.70;;
35576;SDS011;21680;52.400;16.920;2022-12-11T10:58:30;21.40;;;10.50;;
35576;SDS011;21680;52.400;16.920;2022-12-11T11:01:02;25.00;;;11.10;;
35576;SDS011;21680;52.400;16.920;2022-12-11T11:03:32;22.20;;;10.60;;
35576;SDS011;21680;52.400;16.920;2022-12-11T11:08:38;26.40;;;11.50;;
35576;SDS011;21680;52.400;16.920;2022-12-11T11:11:05;25.40;;;11.50;;
35576;SDS011;21680;52.400;16.920;2022-12-11T11:16:36;30.90;;;14.60;;
35576;SDS011;21680;52.400;16.920;2022-12-11T11:19:03;30.20;;;12.80;;
35576;SDS011;21680;52.400;16.920;2022-12-11T11:21:29;28.60;;;13.70;;
35576;SDS011;21680;52.400;16.920;2022-12-11T11:23:56;26.70;;;12.30;;
35576;SDS011;21680;52.400;16.920;2022-12-11T11:26:22;25.90;;;12.50;;
35576;SDS011;21680;52.400;16.920;2022-12-11T11:28:51;28.30;;;13.20;;
35576;SDS011;21680;52.400;16.920;2022-12-11T11:31:20;28.60;;;10.90;;
35576;SDS011;21680;52.400;16.920;2022-12-11T11:33:55;22.50;;;9.50;;
35576;SDS011;21680;52.400;16.920;2022-12-11T11:36:24;23.90;;;10.50;;
35576;SDS011;21680;52.400;16.920;2022-12-11T11:41:39;30.60;;;11.70;;
35576;SDS011;21680;52.400;16.920;2022-12-11T11:44:09;24.30;;;10.70;;
35576;SDS011;21680;52.400;16.920;2022-12-11T11:46:46;33.00;;;11.60;;
35576;SDS011;21680;52.400;16.920;2022-12-11T11:52:29;33.70;;;12.10;;
35576;SDS011;21680;52.400;16.920;2022-12-11T11:57:52;32.90;;;12.50;;
35576;SDS011;21680;52.400;16.920;2022-12-11T12:00:31;27.50;;;11.90;;
35576;SDS011;21680;52.400;16.920;2022-12-11T12:03:16;23.60;;;10.20;;
35576;SDS011;21680;52.400;16.920;2022-12-11T12:11:11;21.30;;;9.70;;
35576;SDS011;21680;52.400;16.920;2022-12-11T12:13:46;23.00;;;9.20;;
35576;SDS011;21680;52.400;16.920;2022-12-11T12:21:48;23.30;;;10.60;;
35576;SDS011;21680;52.400;16.920;2022-12-11T12:26:59;24.70;;;10.40;;
35576;SDS011;21680;52.400;16.920;2022-12-11T12:29:47;32.90;;;11.70;;
35576;SDS011;21680;52.400;16.920;2022-12-11T12:35:33;18.80;;;8.40;;
35576;SDS011;21680;52.400;16.920;2022-12-11T12:38:19;20.90;;;9.00;;
35576;SDS011;21680;52.400;16.920;2022-12-11T12:49:01;22.80;;;9.60;;
35576;SDS011;21680;52.400;16.920;2022-12-11T12:51:28;19.70;;;8.70;;
35576;SDS011;21680;52.400;16.920;2022-12-11T12:53:56;18.30;;;8.60;;
35576;SDS011;21680;52.400;16.920;2022-12-11T12:56:24;20.00;;;10.40;;
35576;SDS011;21680;52.400;16.920;2022-12-11T12:58:51;19.60;;;8.30;;
35576;SDS011;21680;52.400;16.920;2022-12-11T13:01:18;22.90;;;9.90;;
35576;SDS011;21680;52.400;16.920;2022-12-11T13:03:52;25.30;;;10.30;;
35576;SDS011;21680;52.400;16.920;2022-12-11T13:06:33;21.50;;;8.70;;
35576;SDS011;21680;52.400;16.920;2022-12-11T13:11:46;16.40;;;8.00;;
35576;SDS011;21680;52.400;16.920;2022-12-11T13:16:43;18.40;;;8.80;;
35576;SDS011;21680;52.400;16.920;2022-12-11T13:19:17;16.30;;;6.90;;
35576;SDS011;21680;52.400;16.920;2022-12-11T13:24:44;14.30;;;6.80;;
35576;SDS011;21680;52.400;16.920;2022-12-11T13:27:25;16.10;;;7.20;;
35576;SDS011;21680;52.400;16.920;2022-12-11T13:32:42;19.60;;;7.70;;
35576;SDS011;21680;52.400;16.920;2022-12-11T13:35:22;17.30;;;7.20;;
35576;SDS011;21680;52.400;16.920;2022-12-11T13:37:49;17.70;;;7.90;;
35576;SDS011;21680;52.400;16.920;2022-12-11T13:40:19;14.90;;;6.40;;
35576;SDS011;21680;52.400;16.920;2022-12-11T13:42:48;16.60;;;6.80;;
35576;SDS011;21680;52.400;16.920;2022-12-11T13:45:17;22.60;;;7.20;;
35576;SDS011;21680;52.400;16.920;2022-12-11T13:47:55;16.50;;;6.50;;
35576;SDS011;21680;52.400;16.920;2022-12-11T13:50:28;13.60;;;6.70;;
35576;SDS011;21680;52.400;16.920;2022-12-11T13:52:56;14.90;;;7.10;;
35576;SDS011;21680;52.400;16.920;2022-12-11T13:55:27;20.10;;;8.20;;
35576;SDS011;21680;52.400;16.920;2022-12-11T13:57:54;19.00;;;8.10;;
35576;SDS011;21680;52.400;16.920;2022-12-11T14:00:21;12.70;;;6.30;;
35576;SDS011;21680;52.400;16.920;2022-12-11T14:02:48;19.00;;;8.70;;
35576;SDS011;21680;52.400;16.920;2022-12-11T14:05:15;22.50;;;9.60;;
35576;SDS011;21680;52.400;16.920;2022-12-11T14:07:42;16.10;;;7.20;;
35576;SDS011;21680;52.400;16.920;2022-12-11T14:10:20;20.80;;;8.30;;
35576;SDS011;21680;52.400;16.920;2022-12-11T14:13:06;19.10;;;8.10;;
35576;SDS011;21680;52.400;16.920;2022-12-11T14:15:42;19.90;;;8.90;;
35576;SDS011;21680;52.400;16.920;2022-12-11T14:18:12;21.40;;;9.00;;
35576;SDS011;21680;52.400;16.920;2022-12-11T14:20:41;24.90;;;9.70;;
35576;SDS011;21680;52.400;16.920;2022-12-11T14:23:18;20.00;;;7.80;;
35576;SDS011;21680;52.400;16.920;2022-12-11T14:25:55;24.60;;;11.00;;
35576;SDS011;21680;52.400;16.920;2022-12-11T14:28:21;24.40;;;9.80;;
35576;SDS011;21680;52.400;16.920;2022-12-11T14:30:51;22.70;;;10.20;;
35576;SDS011;21680;52.400;16.920;2022-12-11T14:33:19;28.50;;;9.70;;
35576;SDS011;21680;52.400;16.920;2022-12-11T14:35:49;24.10;;;10.10;;
35576;SDS011;21680;52.400;16.920;2022-12-11T14:38:21;34.40;;;11.90;;
35576;SDS011;21680;52.400;16.920;2022-12-11T14:40:53;22.70;;;9.50;;
35576;SDS011;21680;52.400;16.920;2022-12-11T14:43:27;26.90;;;10.40;;
35576;SDS011;21680;52.400;16.920;2022-12-11T14:45:59;24.20;;;10.50;;
35576;SDS011;21680;52.400;16.920;2022-12-11T14:48:29;27.20;;;10.50;;
35576;SDS011;21680;52.400;16.920;2022-12-11T14:51:00;20.40;;;9.00;;
35576;SDS011;21680;52.400;16.920;2022-12-11T14:53:34;17.50;;;8.30;;
35576;SDS011;21680;52.400;16.920;2022-12-11T14:56:04;21.20;;;8.70;;
35576;SDS011;21680;52.400;16.920;2022-12-11T14:58:31;19.60;;;8.40;;
35576;SDS011;21680;52.400;16.920;2022-12-11T15:03:34;24.30;;;10.40;;
35576;SDS011;21680;52.400;16.920;2022-12-11T15:06:17;19.90;;;8.60;;
35576;SDS011;21680;52.400;16.920;2022-12-11T15:08:50;25.60;;;9.60;;
35576;SDS011;21680;52.400;16.920;2022-12-11T15:11:16;27.50;;;10.30;;
35576;SDS011;21680;52.400;16.920;2022-12-11T15:16:20;24.60;;;10.20;;
35576;SDS011;21680;52.400;16.920;2022-12-11T15:18:47;26.10;;;10.60;;
35576;SDS011;21680;52.400;16.920;2022-12-11T15:21:14;22.70;;;9.40;;
35576;SDS011;21680;52.400;16.920;2022-12-11T15:26:08;24.60;;;10.30;;
35576;SDS011;21680;52.400;16.920;2022-12-11T15:28:35;31.90;;;13.40;;
35576;SDS011;21680;52.400;16.920;2022-12-11T15:31:21;23.80;;;9.60;;
35576;SDS011;21680;52.400;16.920;2022-12-11T15:33:49;27.10;;;11.20;;
35576;SDS011;21680;52.400;16.920;2022-12-11T15:36:34;28.00;;;12.30;;
35576;SDS011;21680;52.400;16.920;2022-12-11T15:39:01;25.70;;;11.50;;
35576;SDS011;21680;52.400;16.920;2022-12-11T15:41:27;28.60;;;12.10;;
35576;SDS011;21680;52.400;16.920;2022-12-11T15:43:58;28.80;;;12.50;;
35576;SDS011;21680;52.400;16.920;2022-12-11T15:46:25;28.10;;;11.90;;
35576;SDS011;21680;52.400;16.920;2022-12-11T15:48:51;29.30;;;13.40;;
35576;SDS011;21680;52.400;16.920;2022-12-11T15:51:16;30.50;;;12.50;;
35576;SDS011;21680;52.400;16.920;2022-12-11T15:53:42;28.60;;;12.40;;